sensor_id;sensor_type;location;lat;lon;timestamp;temperature;humidity
44277;DHT22;29973;43.742;1.236;2022-08-19T00:00:38;17.20;99.90
44277;DHT22;29973;43.742;1.236;2022-08-19T00:03:05;17.30;99.90
44277;DHT22;29973;43.742;1.236;2022-08-19T00:05:32;17.20;99.90
44277;DHT22;29973;43.742;1.236;2022-08-19T00:07:58;17.20;99.90
44277;DHT22;29973;43.742;1.236;2022-08-19T00:10:24;17.20;99.90
44277;DHT22;29973;43.742;1.236;2022-08-19T00:12:50;17.10;99.90
44277;DHT22;29973;43.742;1.236;2022-08-19T00:15:18;17.30;99.90
44277;DHT22;29973;43.742;1.236;2022-08-19T00:17:45;17.50;99.90
44277;DHT22;29973;43.742;1.236;2022-08-19T00:20:13;17.60;99.90
44277;DHT22;29973;43.742;1.236;2022-08-19T00:22:39;17.60;99.90
44277;DHT22;29973;43.742;1.236;2022-08-19T00:25:07;17.70;99.90
44277;DHT22;29973;43.742;1.236;2022-08-19T00:27:33;17.70;99.90
44277;DHT22;29973;43.742;1.236;2022-08-19T00:29:59;17.80;99.90
44277;DHT22;29973;43.742;1.236;2022-08-19T00:32:25;17.70;99.90
44277;DHT22;29973;43.742;1.236;2022-08-19T00:34:52;17.80;99.90
44277;DHT22;29973;43.742;1.236;2022-08-19T00:37:22;17.80;99.90
44277;DHT22;29973;43.742;1.236;2022-08-19T00:39:49;17.90;99.90
44277;DHT22;29973;43.742;1.236;2022-08-19T00:42:16;17.80;99.90
44277;DHT22;29973;43.742;1.236;2022-08-19T00:44:42;18.00;99.90
44277;DHT22;29973;43.742;1.236;2022-08-19T00:47:08;17.90;99.90
44277;DHT22;29973;43.742;1.236;2022-08-19T00:49:37;17.90;99.90
44277;DHT22;29973;43.742;1.236;2022-08-19T00:52:19;17.90;99.90
44277;DHT22;29973;43.742;1.236;2022-08-19T00:54:48;17.90;99.90
44277;DHT22;29973;43.742;1.236;2022-08-19T00:57:17;17.90;99.90
44277;DHT22;29973;43.742;1.236;2022-08-19T00:59:47;17.80;99.90
44277;DHT22;29973;43.742;1.236;2022-08-19T01:02:14;17.80;99.90
44277;DHT22;29973;43.742;1.236;2022-08-19T01:04:40;17.80;99.90
44277;DHT22;29973;43.742;1.236;2022-08-19T01:07:06;17.80;99.90
44277;DHT22;29973;43.742;1.236;2022-08-19T01:09:32;17.70;99.90
44277;DHT22;29973;43.742;1.236;2022-08-19T01:11:58;17.70;99.90
44277;DHT22;29973;43.742;1.236;2022-08-19T01:14:25;17.60;99.90
44277;DHT22;29973;43.742;1.236;2022-08-19T01:16:52;17.70;99.90
44277;DHT22;29973;43.742;1.236;2022-08-19T01:19:33;17.60;99.90
44277;DHT22;29973;43.742;1.236;2022-08-19T01:22:12;17.60;99.90
44277;DHT22;29973;43.742;1.236;2022-08-19T01:24:39;17.40;99.90
44277;DHT22;29973;43.742;1.236;2022-08-19T01:27:06;17.30;99.90
44277;DHT22;29973;43.742;1.236;2022-08-19T01:29:32;17.20;99.90
44277;DHT22;29973;43.742;1.236;2022-08-19T01:31:58;17.20;99.90
44277;DHT22;29973;43.742;1.236;2022-08-19T01:34:24;17.10;99.90
44277;DHT22;29973;43.742;1.236;2022-08-19T01:36:50;17.10;99.90
44277;DHT22;29973;43.742;1.236;2022-08-19T01:39:21;17.10;99.90
44277;DHT22;29973;43.742;1.236;2022-08-19T01:41:47;17.00;99.90
44277;DHT22;29973;43.742;1.236;2022-08-19T01:44:13;17.00;99.90
44277;DHT22;29973;43.742;1.236;2022-08-19T01:46:40;17.10;99.90
44277;DHT22;29973;43.742;1.236;2022-08-19T01:49:07;17.10;99.90
44277;DHT22;29973;43.742;1.236;2022-08-19T01:51:33;17.10;99.90
44277;DHT22;29973;43.742;1.236;2022-08-19T01:54:00;17.10;99.90
44277;DHT22;29973;43.742;1.236;2022-08-19T01:56:26;17.20;99.90
44277;DHT22;29973;43.742;1.236;2022-08-19T01:59:03;17.10;99.90
44277;DHT22;29973;43.742;1.236;2022-08-19T02:01:30;17.20;99.90
44277;DHT22;29973;43.742;1.236;2022-08-19T02:03:58;17.20;99.90
44277;DHT22;29973;43.742;1.236;2022-08-19T02:06:26;17.20;99.90
44277;DHT22;29973;43.742;1.236;2022-08-19T02:08:52;17.20;99.90
44277;DHT22;29973;43.742;1.236;2022-08-19T02:11:24;17.10;99.90
44277;DHT22;29973;43.742;1.236;2022-08-19T02:13:52;17.10;99.90
44277;DHT22;29973;43.742;1.236;2022-08-19T02:16:19;17.00;99.90
44277;DHT22;29973;43.742;1.236;2022-08-19T02:18:46;16.90;99.90
44277;DHT22;29973;43.742;1.236;2022-08-19T02:21:15;16.90;99.90
44277;DHT22;29973;43.742;1.236;2022-08-19T02:23:42;16.80;99.90
44277;DHT22;29973;43.742;1.236;2022-08-19T02:26:08;16.90;99.90
44277;DHT22;29973;43.742;1.236;2022-08-19T02:28:34;16.70;99.90
44277;DHT22;29973;43.742;1.236;2022-08-19T02:31:00;16.60;99.90
44277;DHT22;29973;43.742;1.236;2022-08-19T02:33:27;16.50;99.90
44277;DHT22;29973;43.742;1.236;2022-08-19T02:35:53;16.60;99.90
44277;DHT22;29973;43.742;1.236;2022-08-19T02:38:19;16.50;99.90
44277;DHT22;29973;43.742;1.236;2022-08-19T02:40:56;16.60;99.90
44277;DHT22;29973;43.742;1.236;2022-08-19T02:43:23;16.60;99.90
44277;DHT22;29973;43.742;1.236;2022-08-19T02:45:49;16.60;99.90
44277;DHT22;29973;43.742;1.236;2022-08-19T02:48:18;16.60;99.90
44277;DHT22;29973;43.742;1.236;2022-08-19T02:50:44;16.70;99.90
44277;DHT22;29973;43.742;1.236;2022-08-19T02:53:10;16.80;99.90
44277;DHT22;29973;43.742;1.236;2022-08-19T02:55:41;16.70;99.90
44277;DHT22;29973;43.742;1.236;2022-08-19T02:58:08;16.70;99.90
44277;DHT22;29973;43.742;1.236;2022-08-19T03:00:34;16.70;99.90
44277;DHT22;29973;43.742;1.236;2022-08-19T03:02:59;16.60;99.90
44277;DHT22;29973;43.742;1.236;2022-08-19T03:05:26;16.60;99.90
44277;DHT22;29973;43.742;1.236;2022-08-19T03:07:52;16.60;99.90
44277;DHT22;29973;43.742;1.236;2022-08-19T03:10:18;16.70;99.90
44277;DHT22;29973;43.742;1.236;2022-08-19T03:12:44;16.70;99.90
44277;DHT22;29973;43.742;1.236;2022-08-19T03:15:11;16.80;99.90
44277;DHT22;29973;43.742;1.236;2022-08-19T03:17:37;16.60;99.90
44277;DHT22;29973;43.742;1.236;2022-08-19T03:20:03;16.70;99.90
44277;DHT22;29973;43.742;1.236;2022-08-19T03:22:29;16.70;99.90
44277;DHT22;29973;43.742;1.236;2022-08-19T03:24:56;16.70;99.90
44277;DHT22;29973;43.742;1.236;2022-08-19T03:27:21;16.70;99.90
44277;DHT22;29973;43.742;1.236;2022-08-19T03:29:48;16.70;99.90
44277;DHT22;29973;43.742;1.236;2022-08-19T03:32:13;16.70;99.90
44277;DHT22;29973;43.742;1.236;2022-08-19T03:34:39;16.60;99.90
44277;DHT22;29973;43.742;1.236;2022-08-19T03:37:07;16.60;99.90
44277;DHT22;29973;43.742;1.236;2022-08-19T03:39:36;16.70;99.90
44277;DHT22;29973;43.742;1.236;2022-08-19T03:42:03;16.80;99.90
44277;DHT22;29973;43.742;1.236;2022-08-19T03:44:30;16.90;99.90
44277;DHT22;29973;43.742;1.236;2022-08-19T03:46:58;17.10;99.90
44277;DHT22;29973;43.742;1.236;2022-08-19T03:49:27;17.10;99.90
44277;DHT22;29973;43.742;1.236;2022-08-19T03:51:54;17.10;99.90
44277;DHT22;29973;43.742;1.236;2022-08-19T03:54:21;17.10;99.90
44277;DHT22;29973;43.742;1.236;2022-08-19T03:56:50;17.10;99.90
44277;DHT22;29973;43.742;1.236;2022-08-19T03:59:20;17.10;99.90
44277;DHT22;29973;43.742;1.236;2022-08-19T04:01:46;17.10;99.90
44277;DHT22;29973;43.742;1.236;2022-08-19T04:04:11;17.00;99.90
44277;DHT22;29973;43.742;1.236;2022-08-19T04:06:38;17.10;99.90
44277;DHT22;29973;43.742;1.236;2022-08-19T04:09:07;17.10;99.90
44277;DHT22;29973;43.742;1.236;2022-08-19T04:11:36;17.10;99.90
44277;DHT22;29973;43.742;1.236;2022-08-19T04:14:06;17.20;99.90
44277;DHT22;29973;43.742;1.236;2022-08-19T04:16:33;17.20;99.90
44277;DHT22;29973;43.742;1.236;2022-08-19T04:19:04;17.20;99.90
44277;DHT22;29973;43.742;1.236;2022-08-19T04:21:30;17.20;99.90
44277;DHT22;29973;43.742;1.236;2022-08-19T04:23:57;17.10;99.90
44277;DHT22;29973;43.742;1.236;2022-08-19T04:26:26;17.00;99.90
44277;DHT22;29973;43.742;1.236;2022-08-19T04:28:53;17.00;99.90
44277;DHT22;29973;43.742;1.236;2022-08-19T04:31:22;16.90;99.90
44277;DHT22;29973;43.742;1.236;2022-08-19T04:34:01;16.70;99.90
44277;DHT22;29973;43.742;1.236;2022-08-19T04:36:32;16.60;99.90
44277;DHT22;29973;43.742;1.236;2022-08-19T04:39:04;16.40;99.90
44277;DHT22;29973;43.742;1.236;2022-08-19T04:41:30;16.30;99.90
44277;DHT22;29973;43.742;1.236;2022-08-19T04:44:15;16.40;99.90
44277;DHT22;29973;43.742;1.236;2022-08-19T04:46:44;16.20;99.90
44277;DHT22;29973;43.742;1.236;2022-08-19T04:49:10;16.30;99.90
44277;DHT22;29973;43.742;1.236;2022-08-19T04:51:39;16.30;99.90
44277;DHT22;29973;43.742;1.236;2022-08-19T04:54:05;16.10;99.90
44277;DHT22;29973;43.742;1.236;2022-08-19T04:56:30;16.00;99.90
44277;DHT22;29973;43.742;1.236;2022-08-19T04:58:58;16.00;99.90
44277;DHT22;29973;43.742;1.236;2022-08-19T05:01:30;15.90;99.90
44277;DHT22;29973;43.742;1.236;2022-08-19T05:03:58;15.90;99.90
44277;DHT22;29973;43.742;1.236;2022-08-19T05:06:24;15.90;99.90
44277;DHT22;29973;43.742;1.236;2022-08-19T05:08:51;15.90;99.90
44277;DHT22;29973;43.742;1.236;2022-08-19T05:11:20;16.00;99.90
44277;DHT22;29973;43.742;1.236;2022-08-19T05:13:47;16.00;99.90
44277;DHT22;29973;43.742;1.236;2022-08-19T05:16:15;15.90;99.90
44277;DHT22;29973;43.742;1.236;2022-08-19T05:18:43;15.90;99.90
44277;DHT22;29973;43.742;1.236;2022-08-19T05:21:28;15.80;99.90
44277;DHT22;29973;43.742;1.236;2022-08-19T05:24:12;15.80;99.90
44277;DHT22;29973;43.742;1.236;2022-08-19T05:26:41;15.70;99.90
44277;DHT22;29973;43.742;1.236;2022-08-19T05:29:08;15.90;99.90
44277;DHT22;29973;43.742;1.236;2022-08-19T05:31:35;15.80;99.90
44277;DHT22;29973;43.742;1.236;2022-08-19T05:34:02;15.80;99.90
44277;DHT22;29973;43.742;1.236;2022-08-19T05:36:36;15.80;99.90
44277;DHT22;29973;43.742;1.236;2022-08-19T05:39:05;15.90;99.90
44277;DHT22;29973;43.742;1.236;2022-08-19T05:41:31;15.90;99.90
44277;DHT22;29973;43.742;1.236;2022-08-19T05:43:58;16.00;99.90
44277;DHT22;29973;43.742;1.236;2022-08-19T05:46:26;16.10;99.90
44277;DHT22;29973;43.742;1.236;2022-08-19T05:48:52;16.10;99.90
44277;DHT22;29973;43.742;1.236;2022-08-19T05:51:17;16.20;99.90
44277;DHT22;29973;43.742;1.236;2022-08-19T05:53:43;16.20;99.90
44277;DHT22;29973;43.742;1.236;2022-08-19T05:56:14;16.30;99.90
44277;DHT22;29973;43.742;1.236;2022-08-19T05:58:44;16.30;99.90
44277;DHT22;29973;43.742;1.236;2022-08-19T06:01:17;16.30;99.90
44277;DHT22;29973;43.742;1.236;2022-08-19T06:03:43;16.40;99.90
44277;DHT22;29973;43.742;1.236;2022-08-19T06:06:11;16.40;99.90
44277;DHT22;29973;43.742;1.236;2022-08-19T06:08:38;16.40;99.90
44277;DHT22;29973;43.742;1.236;2022-08-19T06:11:22;16.50;99.90
44277;DHT22;29973;43.742;1.236;2022-08-19T06:13:51;16.60;99.90
44277;DHT22;29973;43.742;1.236;2022-08-19T06:16:21;16.70;99.90
44277;DHT22;29973;43.742;1.236;2022-08-19T06:18:55;16.90;99.90
44277;DHT22;29973;43.742;1.236;2022-08-19T06:21:25;17.10;99.90
44277;DHT22;29973;43.742;1.236;2022-08-19T06:23:52;17.20;99.90
44277;DHT22;29973;43.742;1.236;2022-08-19T06:26:20;17.40;99.90
44277;DHT22;29973;43.742;1.236;2022-08-19T06:28:47;17.40;99.90
44277;DHT22;29973;43.742;1.236;2022-08-19T06:31:26;17.40;99.90
44277;DHT22;29973;43.742;1.236;2022-08-19T06:33:52;17.40;99.90
44277;DHT22;29973;43.742;1.236;2022-08-19T06:36:24;17.50;99.90
44277;DHT22;29973;43.742;1.236;2022-08-19T06:38:55;17.60;99.90
44277;DHT22;29973;43.742;1.236;2022-08-19T06:41:23;17.90;99.90
44277;DHT22;29973;43.742;1.236;2022-08-19T06:43:48;18.20;99.90
44277;DHT22;29973;43.742;1.236;2022-08-19T06:46:16;18.00;99.90
44277;DHT22;29973;43.742;1.236;2022-08-19T06:48:43;18.20;99.90
44277;DHT22;29973;43.742;1.236;2022-08-19T06:51:08;18.00;99.90
44277;DHT22;29973;43.742;1.236;2022-08-19T06:53:34;18.00;99.90
44277;DHT22;29973;43.742;1.236;2022-08-19T06:56:00;17.90;99.90
44277;DHT22;29973;43.742;1.236;2022-08-19T06:58:29;17.90;99.90
44277;DHT22;29973;43.742;1.236;2022-08-19T07:00:59;17.90;99.90
44277;DHT22;29973;43.742;1.236;2022-08-19T07:03:28;17.90;99.90
44277;DHT22;29973;43.742;1.236;2022-08-19T07:05:55;17.90;99.90
44277;DHT22;29973;43.742;1.236;2022-08-19T07:08:21;17.90;99.90
44277;DHT22;29973;43.742;1.236;2022-08-19T07:10:47;18.00;99.90
44277;DHT22;29973;43.742;1.236;2022-08-19T07:13:14;17.90;99.90
44277;DHT22;29973;43.742;1.236;2022-08-19T07:15:40;18.00;99.90
44277;DHT22;29973;43.742;1.236;2022-08-19T07:18:06;17.90;99.90
44277;DHT22;29973;43.742;1.236;2022-08-19T07:20:32;18.30;99.90
44277;DHT22;29973;43.742;1.236;2022-08-19T07:22:58;18.50;99.90
44277;DHT22;29973;43.742;1.236;2022-08-19T07:25:24;18.70;99.90
44277;DHT22;29973;43.742;1.236;2022-08-19T07:27:49;19.10;99.90
44277;DHT22;29973;43.742;1.236;2022-08-19T07:30:16;19.10;99.90
44277;DHT22;29973;43.742;1.236;2022-08-19T07:32:42;19.50;99.90
44277;DHT22;29973;43.742;1.236;2022-08-19T07:35:08;19.30;99.90
44277;DHT22;29973;43.742;1.236;2022-08-19T07:37:35;19.50;99.90
44277;DHT22;29973;43.742;1.236;2022-08-19T07:40:05;19.30;99.90
44277;DHT22;29973;43.742;1.236;2022-08-19T07:42:31;19.30;99.90
44277;DHT22;29973;43.742;1.236;2022-08-19T07:44:58;19.90;99.90
44277;DHT22;29973;43.742;1.236;2022-08-19T07:47:24;20.00;99.90
44277;DHT22;29973;43.742;1.236;2022-08-19T07:49:49;19.90;99.90
44277;DHT22;29973;43.742;1.236;2022-08-19T07:52:15;19.60;99.90
44277;DHT22;29973;43.742;1.236;2022-08-19T07:54:42;19.50;99.90
44277;DHT22;29973;43.742;1.236;2022-08-19T07:57:08;19.30;99.90
44277;DHT22;29973;43.742;1.236;2022-08-19T07:59:34;19.10;99.90
44277;DHT22;29973;43.742;1.236;2022-08-19T08:02:00;19.20;99.90
44277;DHT22;29973;43.742;1.236;2022-08-19T08:04:28;19.50;99.90
44277;DHT22;29973;43.742;1.236;2022-08-19T08:07:13;19.90;99.90
44277;DHT22;29973;43.742;1.236;2022-08-19T08:09:57;20.30;99.90
44277;DHT22;29973;43.742;1.236;2022-08-19T08:12:27;20.70;99.90
44277;DHT22;29973;43.742;1.236;2022-08-19T08:14:57;20.50;99.90
44277;DHT22;29973;43.742;1.236;2022-08-19T08:17:26;20.40;99.90
44277;DHT22;29973;43.742;1.236;2022-08-19T08:19:53;20.40;99.90
44277;DHT22;29973;43.742;1.236;2022-08-19T08:22:21;20.60;99.90
44277;DHT22;29973;43.742;1.236;2022-08-19T08:25:14;20.40;99.90
44277;DHT22;29973;43.742;1.236;2022-08-19T08:27:41;21.10;99.90
44277;DHT22;29973;43.742;1.236;2022-08-19T08:30:09;20.90;99.90
44277;DHT22;29973;43.742;1.236;2022-08-19T08:32:37;20.90;99.90
44277;DHT22;29973;43.742;1.236;2022-08-19T08:35:08;21.60;99.90
44277;DHT22;29973;43.742;1.236;2022-08-19T08:37:34;21.10;99.90
44277;DHT22;29973;43.742;1.236;2022-08-19T08:42:55;21.30;99.90
44277;DHT22;29973;43.742;1.236;2022-08-19T08:45:24;21.60;99.90
44277;DHT22;29973;43.742;1.236;2022-08-19T08:47:52;22.30;99.90
44277;DHT22;29973;43.742;1.236;2022-08-19T08:50:25;22.20;99.90
44277;DHT22;29973;43.742;1.236;2022-08-19T08:52:56;21.40;99.90
44277;DHT22;29973;43.742;1.236;2022-08-19T08:55:26;21.30;99.90
44277;DHT22;29973;43.742;1.236;2022-08-19T08:58:41;21.50;99.90
44277;DHT22;29973;43.742;1.236;2022-08-19T09:00:48;21.90;99.90
44277;DHT22;29973;43.742;1.236;2022-08-19T09:03:21;22.30;99.90
44277;DHT22;29973;43.742;1.236;2022-08-19T09:05:55;22.10;99.90
44277;DHT22;29973;43.742;1.236;2022-08-19T09:08:31;21.80;99.90
44277;DHT22;29973;43.742;1.236;2022-08-19T09:10:58;21.80;99.90
44277;DHT22;29973;43.742;1.236;2022-08-19T09:14:08;22.10;99.90
44277;DHT22;29973;43.742;1.236;2022-08-19T09:16:30;21.70;99.90
44277;DHT22;29973;43.742;1.236;2022-08-19T09:19:01;21.50;99.90
44277;DHT22;29973;43.742;1.236;2022-08-19T09:21:27;21.10;99.90
44277;DHT22;29973;43.742;1.236;2022-08-19T09:23:53;20.90;99.90
44277;DHT22;29973;43.742;1.236;2022-08-19T09:26:21;21.40;99.90
44277;DHT22;29973;43.742;1.236;2022-08-19T09:28:49;22.00;99.90
44277;DHT22;29973;43.742;1.236;2022-08-19T09:31:17;22.30;99.90
44277;DHT22;29973;43.742;1.236;2022-08-19T09:33:44;22.50;99.90
44277;DHT22;29973;43.742;1.236;2022-08-19T09:36:13;22.80;99.90
44277;DHT22;29973;43.742;1.236;2022-08-19T09:38:39;22.50;99.90
44277;DHT22;29973;43.742;1.236;2022-08-19T09:41:15;22.60;99.90
44277;DHT22;29973;43.742;1.236;2022-08-19T09:43:42;21.90;99.90
44277;DHT22;29973;43.742;1.236;2022-08-19T09:46:09;21.70;99.90
44277;DHT22;29973;43.742;1.236;2022-08-19T09:48:36;21.80;99.90
44277;DHT22;29973;43.742;1.236;2022-08-19T09:51:07;21.70;99.90
44277;DHT22;29973;43.742;1.236;2022-08-19T09:53:33;22.40;99.90
44277;DHT22;29973;43.742;1.236;2022-08-19T09:55:59;22.50;99.90
44277;DHT22;29973;43.742;1.236;2022-08-19T09:58:25;22.90;99.90
44277;DHT22;29973;43.742;1.236;2022-08-19T10:00:54;23.40;99.90
44277;DHT22;29973;43.742;1.236;2022-08-19T10:03:21;23.70;99.90
44277;DHT22;29973;43.742;1.236;2022-08-19T10:05:46;23.70;99.90
44277;DHT22;29973;43.742;1.236;2022-08-19T10:08:18;24.80;99.90
44277;DHT22;29973;43.742;1.236;2022-08-19T10:10:44;24.10;99.90
44277;DHT22;29973;43.742;1.236;2022-08-19T10:13:11;23.80;99.90
44277;DHT22;29973;43.742;1.236;2022-08-19T10:15:37;23.60;99.90
44277;DHT22;29973;43.742;1.236;2022-08-19T10:18:05;23.60;99.90
44277;DHT22;29973;43.742;1.236;2022-08-19T10:20:31;23.30;99.90
44277;DHT22;29973;43.742;1.236;2022-08-19T10:22:57;23.10;99.90
44277;DHT22;29973;43.742;1.236;2022-08-19T10:25:25;23.20;99.90
44277;DHT22;29973;43.742;1.236;2022-08-19T10:27:52;23.80;99.90
44277;DHT22;29973;43.742;1.236;2022-08-19T10:30:18;24.10;99.90
44277;DHT22;29973;43.742;1.236;2022-08-19T10:32:44;23.60;99.90
44277;DHT22;29973;43.742;1.236;2022-08-19T10:35:11;23.50;99.90
44277;DHT22;29973;43.742;1.236;2022-08-19T10:37:38;23.60;99.90
44277;DHT22;29973;43.742;1.236;2022-08-19T10:40:06;24.00;99.90
44277;DHT22;29973;43.742;1.236;2022-08-19T10:42:34;24.00;99.90
44277;DHT22;29973;43.742;1.236;2022-08-19T10:45:01;24.60;99.90
44277;DHT22;29973;43.742;1.236;2022-08-19T10:47:27;25.30;99.90
44277;DHT22;29973;43.742;1.236;2022-08-19T10:49:54;25.10;99.90
44277;DHT22;29973;43.742;1.236;2022-08-19T10:52:49;24.40;99.90
44277;DHT22;29973;43.742;1.236;2022-08-19T10:55:16;24.70;99.90
44277;DHT22;29973;43.742;1.236;2022-08-19T10:58:01;25.90;99.90
44277;DHT22;29973;43.742;1.236;2022-08-19T11:00:27;24.70;99.90
44277;DHT22;29973;43.742;1.236;2022-08-19T11:02:54;24.40;99.90
44277;DHT22;29973;43.742;1.236;2022-08-19T11:05:21;25.20;99.90
44277;DHT22;29973;43.742;1.236;2022-08-19T11:07:47;25.50;99.90
44277;DHT22;29973;43.742;1.236;2022-08-19T11:10:15;25.30;99.90
44277;DHT22;29973;43.742;1.236;2022-08-19T11:12:44;26.70;99.90
44277;DHT22;29973;43.742;1.236;2022-08-19T11:15:12;27.70;99.90
44277;DHT22;29973;43.742;1.236;2022-08-19T11:17:38;29.20;99.90
44277;DHT22;29973;43.742;1.236;2022-08-19T11:20:13;27.80;99.90
44277;DHT22;29973;43.742;1.236;2022-08-19T11:22:39;26.20;99.90
44277;DHT22;29973;43.742;1.236;2022-08-19T11:25:07;27.20;99.90
44277;DHT22;29973;43.742;1.236;2022-08-19T11:27:33;28.90;99.90
44277;DHT22;29973;43.742;1.236;2022-08-19T11:29:59;28.50;99.90
44277;DHT22;29973;43.742;1.236;2022-08-19T11:32:26;27.50;99.90
44277;DHT22;29973;43.742;1.236;2022-08-19T11:34:53;27.60;99.90
44277;DHT22;29973;43.742;1.236;2022-08-19T11:37:21;25.90;99.90
44277;DHT22;29973;43.742;1.236;2022-08-19T11:39:47;25.50;99.90
44277;DHT22;29973;43.742;1.236;2022-08-19T11:42:13;25.30;99.90
44277;DHT22;29973;43.742;1.236;2022-08-19T11:44:57;26.00;99.90
44277;DHT22;29973;43.742;1.236;2022-08-19T11:47:26;27.20;99.90
44277;DHT22;29973;43.742;1.236;2022-08-19T11:49:51;29.80;99.90
44277;DHT22;29973;43.742;1.236;2022-08-19T11:52:18;30.60;99.90
44277;DHT22;29973;43.742;1.236;2022-08-19T11:54:44;29.20;99.90
44277;DHT22;29973;43.742;1.236;2022-08-19T11:57:10;27.70;99.90
44277;DHT22;29973;43.742;1.236;2022-08-19T11:59:35;27.40;99.90
44277;DHT22;29973;43.742;1.236;2022-08-19T12:02:01;29.40;99.90
44277;DHT22;29973;43.742;1.236;2022-08-19T12:04:27;27.10;99.90
44277;DHT22;29973;43.742;1.236;2022-08-19T12:06:53;27.00;99.90
44277;DHT22;29973;43.742;1.236;2022-08-19T12:09:20;30.60;99.90
44277;DHT22;29973;43.742;1.236;2022-08-19T12:11:47;32.30;99.90
44277;DHT22;29973;43.742;1.236;2022-08-19T12:14:13;30.00;99.90
44277;DHT22;29973;43.742;1.236;2022-08-19T12:16:39;29.20;99.90
44277;DHT22;29973;43.742;1.236;2022-08-19T12:19:08;28.50;99.90
44277;DHT22;29973;43.742;1.236;2022-08-19T12:21:35;27.10;99.90
44277;DHT22;29973;43.742;1.236;2022-08-19T12:24:03;25.40;99.90
44277;DHT22;29973;43.742;1.236;2022-08-19T12:26:30;29.00;99.90
44277;DHT22;29973;43.742;1.236;2022-08-19T12:28:59;28.40;99.90
44277;DHT22;29973;43.742;1.236;2022-08-19T12:31:27;30.60;99.90
44277;DHT22;29973;43.742;1.236;2022-08-19T12:33:54;32.50;99.90
44277;DHT22;29973;43.742;1.236;2022-08-19T12:36:20;32.30;99.90
44277;DHT22;29973;43.742;1.236;2022-08-19T12:38:47;30.00;99.90
44277;DHT22;29973;43.742;1.236;2022-08-19T12:41:15;31.60;99.90
44277;DHT22;29973;43.742;1.236;2022-08-19T12:43:43;29.70;99.90
44277;DHT22;29973;43.742;1.236;2022-08-19T12:46:12;29.40;99.90
44277;DHT22;29973;43.742;1.236;2022-08-19T12:48:38;27.30;99.90
44277;DHT22;29973;43.742;1.236;2022-08-19T12:51:09;27.90;99.90
44277;DHT22;29973;43.742;1.236;2022-08-19T12:53:36;31.40;99.90
44277;DHT22;29973;43.742;1.236;2022-08-19T12:56:03;30.70;99.90
44277;DHT22;29973;43.742;1.236;2022-08-19T12:58:29;33.90;99.90
44277;DHT22;29973;43.742;1.236;2022-08-19T13:00:55;33.20;99.90
44277;DHT22;29973;43.742;1.236;2022-08-19T13:03:21;32.20;99.90
44277;DHT22;29973;43.742;1.236;2022-08-19T13:05:52;33.80;99.90
44277;DHT22;29973;43.742;1.236;2022-08-19T13:08:18;35.20;99.90
44277;DHT22;29973;43.742;1.236;2022-08-19T13:10:44;33.60;99.90
44277;DHT22;29973;43.742;1.236;2022-08-19T13:13:10;32.00;99.90
44277;DHT22;29973;43.742;1.236;2022-08-19T13:15:38;33.70;99.90
44277;DHT22;29973;43.742;1.236;2022-08-19T13:18:06;31.90;99.90
44277;DHT22;29973;43.742;1.236;2022-08-19T13:20:32;28.90;99.90
44277;DHT22;29973;43.742;1.236;2022-08-19T13:22:57;31.60;99.90
44277;DHT22;29973;43.742;1.236;2022-08-19T13:25:24;30.30;99.90
44277;DHT22;29973;43.742;1.236;2022-08-19T13:27:51;31.70;99.90
44277;DHT22;29973;43.742;1.236;2022-08-19T13:30:18;30.50;99.90
44277;DHT22;29973;43.742;1.236;2022-08-19T13:33:04;33.90;99.90
44277;DHT22;29973;43.742;1.236;2022-08-19T13:35:40;31.50;99.90
44277;DHT22;29973;43.742;1.236;2022-08-19T13:38:06;29.10;99.90
44277;DHT22;29973;43.742;1.236;2022-08-19T13:40:33;28.50;99.90
44277;DHT22;29973;43.742;1.236;2022-08-19T13:43:00;30.10;99.90
44277;DHT22;29973;43.742;1.236;2022-08-19T13:45:27;34.70;99.90
44277;DHT22;29973;43.742;1.236;2022-08-19T13:47:55;36.30;99.90
44277;DHT22;29973;43.742;1.236;2022-08-19T13:50:27;36.60;99.90
44277;DHT22;29973;43.742;1.236;2022-08-19T13:52:54;32.20;99.90
44277;DHT22;29973;43.742;1.236;2022-08-19T13:55:21;28.80;99.90
44277;DHT22;29973;43.742;1.236;2022-08-19T13:57:53;28.90;99.90
44277;DHT22;29973;43.742;1.236;2022-08-19T14:00:19;34.10;99.90
44277;DHT22;29973;43.742;1.236;2022-08-19T14:02:47;31.50;99.90
44277;DHT22;29973;43.742;1.236;2022-08-19T14:05:16;29.20;99.90
44277;DHT22;29973;43.742;1.236;2022-08-19T14:07:42;28.10;99.90
44277;DHT22;29973;43.742;1.236;2022-08-19T14:10:11;27.10;99.90
44277;DHT22;29973;43.742;1.236;2022-08-19T14:12:37;29.80;99.90
44277;DHT22;29973;43.742;1.236;2022-08-19T14:15:05;35.20;99.90
44277;DHT22;29973;43.742;1.236;2022-08-19T14:17:32;36.00;99.90
44277;DHT22;29973;43.742;1.236;2022-08-19T14:20:02;32.70;99.90
44277;DHT22;29973;43.742;1.236;2022-08-19T14:22:37;30.80;99.90
44277;DHT22;29973;43.742;1.236;2022-08-19T14:25:04;33.80;99.90
44277;DHT22;29973;43.742;1.236;2022-08-19T14:27:33;31.20;99.90
44277;DHT22;29973;43.742;1.236;2022-08-19T14:29:59;30.20;99.90
44277;DHT22;29973;43.742;1.236;2022-08-19T14:32:25;32.70;99.90
44277;DHT22;29973;43.742;1.236;2022-08-19T14:34:53;36.20;99.90
44277;DHT22;29973;43.742;1.236;2022-08-19T14:37:19;33.40;99.90
44277;DHT22;29973;43.742;1.236;2022-08-19T14:39:47;30.30;99.90
44277;DHT22;29973;43.742;1.236;2022-08-19T14:42:13;29.00;99.90
44277;DHT22;29973;43.742;1.236;2022-08-19T14:44:42;28.30;99.90
44277;DHT22;29973;43.742;1.236;2022-08-19T14:47:09;28.10;99.90
44277;DHT22;29973;43.742;1.236;2022-08-19T14:49:34;28.30;99.90
44277;DHT22;29973;43.742;1.236;2022-08-19T14:52:01;28.50;99.90
44277;DHT22;29973;43.742;1.236;2022-08-19T14:54:27;30.20;99.90
44277;DHT22;29973;43.742;1.236;2022-08-19T14:56:53;29.80;99.90
44277;DHT22;29973;43.742;1.236;2022-08-19T14:59:18;33.10;99.90
44277;DHT22;29973;43.742;1.236;2022-08-19T15:01:44;34.30;99.90
44277;DHT22;29973;43.742;1.236;2022-08-19T15:04:10;31.50;99.90
44277;DHT22;29973;43.742;1.236;2022-08-19T15:06:36;29.20;99.90
44277;DHT22;29973;43.742;1.236;2022-08-19T15:09:02;27.90;99.90
44277;DHT22;29973;43.742;1.236;2022-08-19T15:11:29;27.50;99.90
44277;DHT22;29973;43.742;1.236;2022-08-19T15:13:55;27.90;99.90
44277;DHT22;29973;43.742;1.236;2022-08-19T15:16:22;28.10;99.90
44277;DHT22;29973;43.742;1.236;2022-08-19T15:18:50;28.50;99.90
44277;DHT22;29973;43.742;1.236;2022-08-19T15:21:17;28.60;99.90
44277;DHT22;29973;43.742;1.236;2022-08-19T15:23:44;28.40;99.90
44277;DHT22;29973;43.742;1.236;2022-08-19T15:26:11;28.00;99.90
44277;DHT22;29973;43.742;1.236;2022-08-19T15:28:38;27.90;99.90
44277;DHT22;29973;43.742;1.236;2022-08-19T15:31:04;30.20;99.90
44277;DHT22;29973;43.742;1.236;2022-08-19T15:33:32;30.10;99.90
44277;DHT22;29973;43.742;1.236;2022-08-19T15:36:00;30.00;99.90
44277;DHT22;29973;43.742;1.236;2022-08-19T15:38:26;31.30;99.90